sensor_id;sensor_type;location;lat;lon;timestamp;P1;durP1;ratioP1;P2;durP2;ratioP2
35518;SDS011;21627;48.216;16.482;2023-03-20T00:02:19;43.97;;;24.83;;
35518;SDS011;21627;48.216;16.482;2023-03-20T00:04:48;48.38;;;24.45;;
35518;SDS011;21627;48.216;16.482;2023-03-20T00:07:16;45.75;;;23.10;;
35518;SDS011;21627;48.216;16.482;2023-03-20T00:09:43;51.40;;;25.08;;
35518;SDS011;21627;48.216;16.482;2023-03-20T00:12:14;47.80;;;24.33;;
35518;SDS011;21627;48.216;16.482;2023-03-20T00:14:47;46.78;;;24.02;;
35518;SDS011;21627;48.216;16.482;2023-03-20T00:17:16;50.08;;;24.65;;
35518;SDS011;21627;48.216;16.482;2023-03-20T00:19:46;53.42;;;27.15;;
35518;SDS011;21627;48.216;16.482;2023-03-20T00:22:14;50.88;;;25.88;;
35518;SDS011;21627;48.216;16.482;2023-03-20T00:24:41;50.67;;;26.85;;
35518;SDS011;21627;48.216;16.482;2023-03-20T00:27:12;52.17;;;26.23;;
35518;SDS011;21627;48.216;16.482;2023-03-20T00:29:43;46.08;;;24.85;;
35518;SDS011;21627;48.216;16.482;2023-03-20T00:32:10;53.30;;;25.70;;
35518;SDS011;21627;48.216;16.482;2023-03-20T00:34:39;48.58;;;25.58;;
35518;SDS011;21627;48.216;16.482;2023-03-20T00:37:07;53.72;;;26.83;;
35518;SDS011;21627;48.216;16.482;2023-03-20T00:39:37;51.63;;;25.73;;
35518;SDS011;21627;48.216;16.482;2023-03-20T00:42:04;46.67;;;25.23;;
35518;SDS011;21627;48.216;16.482;2023-03-20T00:44:33;48.80;;;24.83;;
35518;SDS011;21627;48.216;16.482;2023-03-20T00:47:17;43.10;;;22.27;;
35518;SDS011;21627;48.216;16.482;2023-03-20T00:49:47;45.53;;;24.73;;
35518;SDS011;21627;48.216;16.482;2023-03-20T00:52:17;40.67;;;21.67;;
35518;SDS011;21627;48.216;16.482;2023-03-20T00:54:45;47.58;;;24.30;;
35518;SDS011;21627;48.216;16.482;2023-03-20T00:57:19;42.05;;;22.38;;
35518;SDS011;21627;48.216;16.482;2023-03-20T01:02:46;43.22;;;22.35;;
35518;SDS011;21627;48.216;16.482;2023-03-20T01:05:14;41.85;;;21.52;;
35518;SDS011;21627;48.216;16.482;2023-03-20T01:07:41;38.50;;;22.92;;
35518;SDS011;21627;48.216;16.482;2023-03-20T01:10:08;41.17;;;21.50;;
35518;SDS011;21627;48.216;16.482;2023-03-20T01:12:40;38.17;;;20.88;;
35518;SDS011;21627;48.216;16.482;2023-03-20T01:15:19;37.20;;;20.23;;
35518;SDS011;21627;48.216;16.482;2023-03-20T01:17:50;34.25;;;20.02;;
35518;SDS011;21627;48.216;16.482;2023-03-20T01:20:20;39.63;;;21.42;;
35518;SDS011;21627;48.216;16.482;2023-03-20T01:22:53;41.80;;;22.35;;
35518;SDS011;21627;48.216;16.482;2023-03-20T01:25:21;39.03;;;21.90;;
35518;SDS011;21627;48.216;16.482;2023-03-20T01:27:49;37.42;;;21.15;;
35518;SDS011;21627;48.216;16.482;2023-03-20T01:30:21;37.30;;;19.92;;
35518;SDS011;21627;48.216;16.482;2023-03-20T01:32:51;41.15;;;21.23;;
35518;SDS011;21627;48.216;16.482;2023-03-20T01:35:20;35.47;;;21.20;;
35518;SDS011;21627;48.216;16.482;2023-03-20T01:37:53;43.05;;;20.73;;
35518;SDS011;21627;48.216;16.482;2023-03-20T01:43:18;35.88;;;20.42;;
35518;SDS011;21627;48.216;16.482;2023-03-20T01:51:21;32.63;;;19.27;;
35518;SDS011;21627;48.216;16.482;2023-03-20T01:54:10;35.85;;;20.42;;
35518;SDS011;21627;48.216;16.482;2023-03-20T01:57:08;37.75;;;20.50;;
35518;SDS011;21627;48.216;16.482;2023-03-20T02:00:04;35.78;;;19.70;;
35518;SDS011;21627;48.216;16.482;2023-03-20T02:02:37;32.70;;;20.25;;
35518;SDS011;21627;48.216;16.482;2023-03-20T02:05:08;32.92;;;19.10;;
35518;SDS011;21627;48.216;16.482;2023-03-20T02:07:38;32.70;;;19.05;;
35518;SDS011;21627;48.216;16.482;2023-03-20T02:10:10;32.47;;;20.13;;
35518;SDS011;21627;48.216;16.482;2023-03-20T02:12:41;35.97;;;20.30;;
35518;SDS011;21627;48.216;16.482;2023-03-20T02:15:09;34.85;;;20.02;;
35518;SDS011;21627;48.216;16.482;2023-03-20T02:17:39;36.47;;;21.15;;
35518;SDS011;21627;48.216;16.482;2023-03-20T02:26:02;37.95;;;21.52;;
35518;SDS011;21627;48.216;16.482;2023-03-20T02:34:43;34.05;;;21.73;;
35518;SDS011;21627;48.216;16.482;2023-03-20T02:38:30;36.88;;;21.02;;
35518;SDS011;21627;48.216;16.482;2023-03-20T02:49:48;36.60;;;21.20;;
35518;SDS011;21627;48.216;16.482;2023-03-20T02:58:55;38.33;;;21.17;;
35518;SDS011;21627;48.216;16.482;2023-03-20T03:01:31;35.50;;;20.23;;
35518;SDS011;21627;48.216;16.482;2023-03-20T03:04:25;37.28;;;22.35;;
35518;SDS011;21627;48.216;16.482;2023-03-20T03:06:58;38.17;;;21.52;;
35518;SDS011;21627;48.216;16.482;2023-03-20T03:09:38;42.75;;;22.10;;
35518;SDS011;21627;48.216;16.482;2023-03-20T03:12:20;47.13;;;24.58;;
35518;SDS011;21627;48.216;16.482;2023-03-20T03:15:00;46.45;;;25.98;;
35518;SDS011;21627;48.216;16.482;2023-03-20T03:17:33;49.90;;;24.90;;
35518;SDS011;21627;48.216;16.482;2023-03-20T03:20:08;47.15;;;25.05;;
35518;SDS011;21627;48.216;16.482;2023-03-20T03:22:51;47.33;;;24.60;;
35518;SDS011;21627;48.216;16.482;2023-03-20T03:25:18;39.90;;;24.08;;
35518;SDS011;21627;48.216;16.482;2023-03-20T03:28:05;42.92;;;23.58;;
35518;SDS011;21627;48.216;16.482;2023-03-20T03:30:48;43.25;;;23.90;;
35518;SDS011;21627;48.216;16.482;2023-03-20T03:36:01;44.00;;;24.08;;
35518;SDS011;21627;48.216;16.482;2023-03-20T03:39:14;44.88;;;24.50;;
35518;SDS011;21627;48.216;16.482;2023-03-20T03:44:58;39.80;;;22.77;;
35518;SDS011;21627;48.216;16.482;2023-03-20T03:48:10;46.55;;;23.73;;
35518;SDS011;21627;48.216;16.482;2023-03-20T03:53:21;36.83;;;21.95;;
35518;SDS011;21627;48.216;16.482;2023-03-20T03:55:56;43.83;;;22.98;;
35518;SDS011;21627;48.216;16.482;2023-03-20T04:01:01;42.65;;;22.60;;
35518;SDS011;21627;48.216;16.482;2023-03-20T04:03:31;38.45;;;22.73;;
35518;SDS011;21627;48.216;16.482;2023-03-20T04:06:04;39.17;;;21.65;;
35518;SDS011;21627;48.216;16.482;2023-03-20T04:08:35;38.05;;;21.15;;
35518;SDS011;21627;48.216;16.482;2023-03-20T04:11:02;37.03;;;22.97;;
35518;SDS011;21627;48.216;16.482;2023-03-20T04:13:29;34.58;;;22.00;;
35518;SDS011;21627;48.216;16.482;2023-03-20T04:15:56;41.25;;;22.50;;
35518;SDS011;21627;48.216;16.482;2023-03-20T04:18:24;34.10;;;20.58;;
35518;SDS011;21627;48.216;16.482;2023-03-20T04:20:51;38.30;;;21.70;;
35518;SDS011;21627;48.216;16.482;2023-03-20T04:23:18;34.40;;;20.27;;
35518;SDS011;21627;48.216;16.482;2023-03-20T04:25:45;36.92;;;21.08;;
35518;SDS011;21627;48.216;16.482;2023-03-20T04:28:13;32.38;;;20.17;;
35518;SDS011;21627;48.216;16.482;2023-03-20T04:30:41;33.38;;;20.02;;
35518;SDS011;21627;48.216;16.482;2023-03-20T04:33:13;36.92;;;21.30;;
35518;SDS011;21627;48.216;16.482;2023-03-20T04:35:40;35.47;;;21.30;;
35518;SDS011;21627;48.216;16.482;2023-03-20T04:38:07;36.33;;;22.52;;
35518;SDS011;21627;48.216;16.482;2023-03-20T04:40:34;35.85;;;21.95;;
35518;SDS011;21627;48.216;16.482;2023-03-20T04:43:02;35.95;;;22.75;;
35518;SDS011;21627;48.216;16.482;2023-03-20T04:45:29;37.72;;;22.70;;
35518;SDS011;21627;48.216;16.482;2023-03-20T04:47:57;37.55;;;22.13;;
35518;SDS011;21627;48.216;16.482;2023-03-20T04:50:24;34.45;;;21.95;;
35518;SDS011;21627;48.216;16.482;2023-03-20T04:52:51;35.38;;;22.73;;
35518;SDS011;21627;48.216;16.482;2023-03-20T04:55:19;34.17;;;21.38;;
35518;SDS011;21627;48.216;16.482;2023-03-20T04:57:47;34.55;;;21.75;;
35518;SDS011;21627;48.216;16.482;2023-03-20T05:00:15;39.35;;;23.95;;
35518;SDS011;21627;48.216;16.482;2023-03-20T05:02:43;40.85;;;24.33;;
35518;SDS011;21627;48.216;16.482;2023-03-20T05:05:11;47.53;;;24.27;;
35518;SDS011;21627;48.216;16.482;2023-03-20T05:07:38;40.78;;;24.02;;
35518;SDS011;21627;48.216;16.482;2023-03-20T05:10:06;39.55;;;21.42;;
35518;SDS011;21627;48.216;16.482;2023-03-20T05:12:34;43.10;;;23.60;;
35518;SDS011;21627;48.216;16.482;2023-03-20T05:15:01;39.25;;;22.02;;
35518;SDS011;21627;48.216;16.482;2023-03-20T05:17:28;39.88;;;22.88;;
35518;SDS011;21627;48.216;16.482;2023-03-20T05:19:56;46.28;;;21.88;;
35518;SDS011;21627;48.216;16.482;2023-03-20T05:22:23;43.47;;;22.40;;
35518;SDS011;21627;48.216;16.482;2023-03-20T05:24:50;38.30;;;22.00;;
35518;SDS011;21627;48.216;16.482;2023-03-20T05:27:17;43.60;;;22.65;;
35518;SDS011;21627;48.216;16.482;2023-03-20T05:29:44;39.47;;;22.48;;
35518;SDS011;21627;48.216;16.482;2023-03-20T05:32:12;39.33;;;23.88;;
35518;SDS011;21627;48.216;16.482;2023-03-20T05:34:39;43.17;;;23.67;;
35518;SDS011;21627;48.216;16.482;2023-03-20T05:37:06;46.97;;;24.52;;
35518;SDS011;21627;48.216;16.482;2023-03-20T05:39:33;47.40;;;24.15;;
35518;SDS011;21627;48.216;16.482;2023-03-20T05:42:00;41.83;;;24.10;;
35518;SDS011;21627;48.216;16.482;2023-03-20T05:44:27;48.28;;;25.45;;
35518;SDS011;21627;48.216;16.482;2023-03-20T05:46:56;47.42;;;24.48;;
35518;SDS011;21627;48.216;16.482;2023-03-20T05:49:23;45.92;;;25.83;;
35518;SDS011;21627;48.216;16.482;2023-03-20T05:51:50;46.80;;;27.40;;
35518;SDS011;21627;48.216;16.482;2023-03-20T05:54:17;44.20;;;25.65;;
35518;SDS011;21627;48.216;16.482;2023-03-20T05:56:47;45.47;;;24.70;;
35518;SDS011;21627;48.216;16.482;2023-03-20T05:59:15;47.85;;;25.52;;
35518;SDS011;21627;48.216;16.482;2023-03-20T06:01:42;48.20;;;26.20;;
35518;SDS011;21627;48.216;16.482;2023-03-20T06:04:09;52.28;;;26.08;;
35518;SDS011;21627;48.216;16.482;2023-03-20T06:06:36;50.05;;;25.92;;
35518;SDS011;21627;48.216;16.482;2023-03-20T06:09:03;46.80;;;26.13;;
35518;SDS011;21627;48.216;16.482;2023-03-20T06:11:31;44.05;;;26.98;;
35518;SDS011;21627;48.216;16.482;2023-03-20T06:14:02;46.38;;;26.13;;
35518;SDS011;21627;48.216;16.482;2023-03-20T06:16:29;45.65;;;26.92;;
35518;SDS011;21627;48.216;16.482;2023-03-20T06:18:56;45.83;;;26.95;;
35518;SDS011;21627;48.216;16.482;2023-03-20T06:21:24;42.05;;;25.35;;
35518;SDS011;21627;48.216;16.482;2023-03-20T06:23:51;48.78;;;26.67;;
35518;SDS011;21627;48.216;16.482;2023-03-20T06:26:20;44.03;;;25.85;;
35518;SDS011;21627;48.216;16.482;2023-03-20T06:28:47;46.67;;;26.50;;
35518;SDS011;21627;48.216;16.482;2023-03-20T06:31:14;50.30;;;28.05;;
35518;SDS011;21627;48.216;16.482;2023-03-20T06:33:42;43.20;;;26.77;;
35518;SDS011;21627;48.216;16.482;2023-03-20T06:36:10;44.38;;;26.67;;
35518;SDS011;21627;48.216;16.482;2023-03-20T06:38:37;45.30;;;26.40;;
35518;SDS011;21627;48.216;16.482;2023-03-20T06:41:04;46.10;;;26.60;;
35518;SDS011;21627;48.216;16.482;2023-03-20T06:43:32;51.03;;;26.45;;
35518;SDS011;21627;48.216;16.482;2023-03-20T06:45:59;41.03;;;23.23;;
35518;SDS011;21627;48.216;16.482;2023-03-20T06:48:26;46.50;;;25.48;;
35518;SDS011;21627;48.216;16.482;2023-03-20T06:50:53;53.95;;;26.50;;
35518;SDS011;21627;48.216;16.482;2023-03-20T06:53:21;49.70;;;27.10;;
35518;SDS011;21627;48.216;16.482;2023-03-20T06:55:48;51.22;;;27.95;;
35518;SDS011;21627;48.216;16.482;2023-03-20T06:58:16;42.78;;;26.83;;
35518;SDS011;21627;48.216;16.482;2023-03-20T07:00:44;44.85;;;27.27;;
35518;SDS011;21627;48.216;16.482;2023-03-20T07:03:12;44.33;;;27.42;;
35518;SDS011;21627;48.216;16.482;2023-03-20T07:05:39;47.00;;;25.55;;
35518;SDS011;21627;48.216;16.482;2023-03-20T07:08:08;40.30;;;25.63;;
35518;SDS011;21627;48.216;16.482;2023-03-20T07:10:35;45.47;;;26.42;;
35518;SDS011;21627;48.216;16.482;2023-03-20T07:13:03;43.70;;;26.13;;
35518;SDS011;21627;48.216;16.482;2023-03-20T07:15:30;40.67;;;24.42;;
35518;SDS011;21627;48.216;16.482;2023-03-20T07:17:57;40.75;;;25.42;;
35518;SDS011;21627;48.216;16.482;2023-03-20T07:20:25;43.03;;;24.00;;
35518;SDS011;21627;48.216;16.482;2023-03-20T07:22:52;37.47;;;23.45;;
35518;SDS011;21627;48.216;16.482;2023-03-20T07:25:20;48.85;;;27.52;;
35518;SDS011;21627;48.216;16.482;2023-03-20T07:28:06;35.65;;;22.00;;
35518;SDS011;21627;48.216;16.482;2023-03-20T07:30:34;35.83;;;22.45;;
35518;SDS011;21627;48.216;16.482;2023-03-20T07:33:01;33.58;;;21.05;;
35518;SDS011;21627;48.216;16.482;2023-03-20T07:35:29;37.30;;;20.92;;
35518;SDS011;21627;48.216;16.482;2023-03-20T07:37:56;42.97;;;20.77;;
35518;SDS011;21627;48.216;16.482;2023-03-20T07:40:23;31.48;;;19.92;;
35518;SDS011;21627;48.216;16.482;2023-03-20T07:42:51;35.75;;;19.88;;
35518;SDS011;21627;48.216;16.482;2023-03-20T07:45:18;30.90;;;19.33;;
35518;SDS011;21627;48.216;16.482;2023-03-20T07:47:45;37.35;;;20.95;;
35518;SDS011;21627;48.216;16.482;2023-03-20T07:50:14;31.73;;;18.65;;
35518;SDS011;21627;48.216;16.482;2023-03-20T07:52:48;37.10;;;19.83;;
35518;SDS011;21627;48.216;16.482;2023-03-20T07:55:16;28.67;;;17.42;;
35518;SDS011;21627;48.216;16.482;2023-03-20T07:57:44;27.33;;;17.10;;
35518;SDS011;21627;48.216;16.482;2023-03-20T08:00:13;31.42;;;16.58;;
35518;SDS011;21627;48.216;16.482;2023-03-20T08:02:41;25.13;;;15.90;;
35518;SDS011;21627;48.216;16.482;2023-03-20T08:05:09;28.45;;;15.05;;
35518;SDS011;21627;48.216;16.482;2023-03-20T08:07:36;26.13;;;14.13;;
35518;SDS011;21627;48.216;16.482;2023-03-20T08:10:03;26.25;;;14.45;;
35518;SDS011;21627;48.216;16.482;2023-03-20T08:12:31;28.30;;;14.98;;
35518;SDS011;21627;48.216;16.482;2023-03-20T08:14:58;21.95;;;13.55;;
35518;SDS011;21627;48.216;16.482;2023-03-20T08:17:26;23.30;;;14.15;;
35518;SDS011;21627;48.216;16.482;2023-03-20T08:19:53;19.00;;;12.25;;
35518;SDS011;21627;48.216;16.482;2023-03-20T08:22:21;18.15;;;11.52;;
35518;SDS011;21627;48.216;16.482;2023-03-20T08:24:48;18.95;;;10.65;;
35518;SDS011;21627;48.216;16.482;2023-03-20T08:27:15;22.90;;;11.13;;
35518;SDS011;21627;48.216;16.482;2023-03-20T08:29:42;17.48;;;10.15;;
35518;SDS011;21627;48.216;16.482;2023-03-20T08:32:09;26.77;;;10.80;;
35518;SDS011;21627;48.216;16.482;2023-03-20T08:34:37;18.45;;;10.18;;
35518;SDS011;21627;48.216;16.482;2023-03-20T08:37:04;18.45;;;9.18;;
35518;SDS011;21627;48.216;16.482;2023-03-20T08:39:33;13.85;;;9.10;;
35518;SDS011;21627;48.216;16.482;2023-03-20T08:42:01;17.42;;;10.43;;
35518;SDS011;21627;48.216;16.482;2023-03-20T08:44:28;13.27;;;8.20;;
35518;SDS011;21627;48.216;16.482;2023-03-20T08:46:55;17.42;;;8.10;;
35518;SDS011;21627;48.216;16.482;2023-03-20T08:49:24;12.63;;;8.13;;
35518;SDS011;21627;48.216;16.482;2023-03-20T08:51:51;11.13;;;7.75;;
35518;SDS011;21627;48.216;16.482;2023-03-20T08:54:18;13.52;;;6.68;;
35518;SDS011;21627;48.216;16.482;2023-03-20T08:56:45;15.07;;;7.30;;
35518;SDS011;21627;48.216;16.482;2023-03-20T08:59:13;11.38;;;5.78;;
35518;SDS011;21627;48.216;16.482;2023-03-20T09:01:40;11.13;;;5.18;;
35518;SDS011;21627;48.216;16.482;2023-03-20T09:04:15;9.30;;;5.05;;
35518;SDS011;21627;48.216;16.482;2023-03-20T09:06:43;11.77;;;5.97;;
35518;SDS011;21627;48.216;16.482;2023-03-20T09:09:10;11.18;;;6.35;;
35518;SDS011;21627;48.216;16.482;2023-03-20T09:11:41;9.88;;;6.32;;
35518;SDS011;21627;48.216;16.482;2023-03-20T09:14:08;11.57;;;6.40;;
35518;SDS011;21627;48.216;16.482;2023-03-20T09:16:36;7.32;;;4.82;;
35518;SDS011;21627;48.216;16.482;2023-03-20T09:19:03;12.30;;;5.70;;
35518;SDS011;21627;48.216;16.482;2023-03-20T09:21:31;10.43;;;5.88;;
35518;SDS011;21627;48.216;16.482;2023-03-20T09:23:59;13.32;;;5.93;;
35518;SDS011;21627;48.216;16.482;2023-03-20T09:26:26;9.50;;;6.10;;
35518;SDS011;21627;48.216;16.482;2023-03-20T09:28:53;11.35;;;6.55;;
35518;SDS011;21627;48.216;16.482;2023-03-20T09:31:20;11.45;;;6.70;;
35518;SDS011;21627;48.216;16.482;2023-03-20T09:33:48;11.77;;;6.53;;
35518;SDS011;21627;48.216;16.482;2023-03-20T09:36:15;10.63;;;7.18;;
35518;SDS011;21627;48.216;16.482;2023-03-20T09:38:43;8.57;;;6.20;;
35518;SDS011;21627;48.216;16.482;2023-03-20T09:41:16;14.75;;;6.60;;
35518;SDS011;21627;48.216;16.482;2023-03-20T09:46:59;15.25;;;5.63;;
35518;SDS011;21627;48.216;16.482;2023-03-20T09:55:00;11.00;;;4.37;;
35518;SDS011;21627;48.216;16.482;2023-03-20T09:57:36;11.00;;;4.78;;
35518;SDS011;21627;48.216;16.482;2023-03-20T10:00:09;8.57;;;4.22;;
35518;SDS011;21627;48.216;16.482;2023-03-20T10:05:30;6.53;;;3.42;;
35518;SDS011;21627;48.216;16.482;2023-03-20T10:08:14;10.40;;;3.78;;
35518;SDS011;21627;48.216;16.482;2023-03-20T10:10:51;9.30;;;3.70;;
35518;SDS011;21627;48.216;16.482;2023-03-20T10:13:38;8.45;;;3.53;;
35518;SDS011;21627;48.216;16.482;2023-03-20T10:17:32;4.88;;;3.28;;
35518;SDS011;21627;48.216;16.482;2023-03-20T10:20:09;6.72;;;3.85;;
35518;SDS011;21627;48.216;16.482;2023-03-20T10:22:49;5.03;;;3.88;;
35518;SDS011;21627;48.216;16.482;2023-03-20T10:25:50;10.18;;;3.63;;
35518;SDS011;21627;48.216;16.482;2023-03-20T10:28:26;6.93;;;4.05;;
35518;SDS011;21627;48.216;16.482;2023-03-20T10:34:05;8.55;;;3.90;;
35518;SDS011;21627;48.216;16.482;2023-03-20T10:36:55;5.72;;;3.85;;
35518;SDS011;21627;48.216;16.482;2023-03-20T10:42:19;9.60;;;4.35;;
35518;SDS011;21627;48.216;16.482;2023-03-20T10:44:57;8.82;;;4.50;;
35518;SDS011;21627;48.216;16.482;2023-03-20T10:47:38;13.27;;;5.00;;
35518;SDS011;21627;48.216;16.482;2023-03-20T10:50:18;8.20;;;5.13;;
35518;SDS011;21627;48.216;16.482;2023-03-20T10:53:17;9.77;;;4.50;;
35518;SDS011;21627;48.216;16.482;2023-03-20T10:56:07;6.07;;;4.13;;
35518;SDS011;21627;48.216;16.482;2023-03-20T10:58:43;10.75;;;4.47;;
35518;SDS011;21627;48.216;16.482;2023-03-20T11:01:16;7.30;;;4.07;;
35518;SDS011;21627;48.216;16.482;2023-03-20T11:03:46;8.10;;;4.70;;
35518;SDS011;21627;48.216;16.482;2023-03-20T11:06:16;6.28;;;3.70;;
35518;SDS011;21627;48.216;16.482;2023-03-20T11:08:49;7.68;;;3.90;;
35518;SDS011;21627;48.216;16.482;2023-03-20T11:11:25;11.80;;;3.80;;
35518;SDS011;21627;48.216;16.482;2023-03-20T11:14:08;8.77;;;3.75;;
35518;SDS011;21627;48.216;16.482;2023-03-20T11:16:48;7.40;;;3.17;;
35518;SDS011;21627;48.216;16.482;2023-03-20T11:19:21;7.30;;;3.40;;
35518;SDS011;21627;48.216;16.482;2023-03-20T11:21:51;6.57;;;3.40;;
35518;SDS011;21627;48.216;16.482;2023-03-20T11:27:09;5.00;;;2.75;;
35518;SDS011;21627;48.216;16.482;2023-03-20T11:29:40;9.43;;;2.70;;
35518;SDS011;21627;48.216;16.482;2023-03-20T11:35:08;3.85;;;2.22;;
35518;SDS011;21627;48.216;16.482;2023-03-20T11:37:47;5.95;;;2.63;;
35518;SDS011;21627;48.216;16.482;2023-03-20T11:40:22;5.57;;;2.70;;
35518;SDS011;21627;48.216;16.482;2023-03-20T11:45:27;5.57;;;3.13;;
35518;SDS011;21627;48.216;16.482;2023-03-20T11:48:04;5.32;;;3.55;;
35518;SDS011;21627;48.216;16.482;2023-03-20T11:51:00;6.30;;;3.20;;
35518;SDS011;21627;48.216;16.482;2023-03-20T11:53:35;7.13;;;2.80;;
35518;SDS011;21627;48.216;16.482;2023-03-20T11:58:37;10.68;;;3.47;;
35518;SDS011;21627;48.216;16.482;2023-03-20T12:01:35;7.78;;;3.13;;
35518;SDS011;21627;48.216;16.482;2023-03-20T12:04:14;6.43;;;2.92;;
35518;SDS011;21627;48.216;16.482;2023-03-20T12:09:46;4.70;;;2.40;;
35518;SDS011;21627;48.216;16.482;2023-03-20T12:15:27;4.82;;;2.97;;
35518;SDS011;21627;48.216;16.482;2023-03-20T12:18:19;7.63;;;3.55;;
35518;SDS011;21627;48.216;16.482;2023-03-20T12:21:14;4.97;;;3.10;;
35518;SDS011;21627;48.216;16.482;2023-03-20T12:23:59;8.68;;;3.20;;
35518;SDS011;21627;48.216;16.482;2023-03-20T12:30:03;5.18;;;3.00;;
35518;SDS011;21627;48.216;16.482;2023-03-20T12:34:00;5.30;;;2.63;;
35518;SDS011;21627;48.216;16.482;2023-03-20T12:36:12;5.13;;;3.03;;
35518;SDS011;21627;48.216;16.482;2023-03-20T12:38:43;6.25;;;3.13;;
35518;SDS011;21627;48.216;16.482;2023-03-20T12:41:13;5.35;;;2.72;;
35518;SDS011;21627;48.216;16.482;2023-03-20T12:47:02;4.88;;;3.10;;
35518;SDS011;21627;48.216;16.482;2023-03-20T12:49:48;14.20;;;3.97;;
35518;SDS011;21627;48.216;16.482;2023-03-20T12:52:57;6.72;;;3.80;;
35518;SDS011;21627;48.216;16.482;2023-03-20T13:01:44;5.25;;;2.72;;
35518;SDS011;21627;48.216;16.482;2023-03-20T13:07:19;5.88;;;3.15;;
35518;SDS011;21627;48.216;16.482;2023-03-20T13:16:01;5.25;;;3.08;;
35518;SDS011;21627;48.216;16.482;2023-03-20T13:19:09;5.80;;;3.28;;
35518;SDS011;21627;48.216;16.482;2023-03-20T13:22:05;5.03;;;2.65;;
35518;SDS011;21627;48.216;16.482;2023-03-20T13:24:54;4.82;;;2.25;;
35518;SDS011;21627;48.216;16.482;2023-03-20T13:27:57;10.00;;;2.90;;
35518;SDS011;21627;48.216;16.482;2023-03-20T13:33:50;8.93;;;2.65;;
35518;SDS011;21627;48.216;16.482;2023-03-20T13:41:51;6.50;;;2.25;;
35518;SDS011;21627;48.216;16.482;2023-03-20T13:44:21;5.90;;;2.88;;
35518;SDS011;21627;48.216;16.482;2023-03-20T13:46:52;6.55;;;2.55;;
35518;SDS011;21627;48.216;16.482;2023-03-20T13:49:41;5.80;;;3.03;;
35518;SDS011;21627;48.216;16.482;2023-03-20T13:52:28;6.30;;;2.92;;
35518;SDS011;21627;48.216;16.482;2023-03-20T13:55:13;6.40;;;2.83;;
35518;SDS011;21627;48.216;16.482;2023-03-20T14:03:39;5.90;;;3.50;;
35518;SDS011;21627;48.216;16.482;2023-03-20T14:08:58;4.07;;;2.28;;
35518;SDS011;21627;48.216;16.482;2023-03-20T14:11:35;3.47;;;2.25;;
35518;SDS011;21627;48.216;16.482;2023-03-20T14:14:17;3.95;;;2.05;;
35518;SDS011;21627;48.216;16.482;2023-03-20T14:17:10;3.85;;;2.47;;
35518;SDS011;21627;48.216;16.482;2023-03-20T14:19:54;4.70;;;2.40;;
35518;SDS011;21627;48.216;16.482;2023-03-20T14:22:29;6.75;;;2.40;;
35518;SDS011;21627;48.216;16.482;2023-03-20T14:25:14;4.82;;;2.67;;
35518;SDS011;21627;48.216;16.482;2023-03-20T14:30:47;4.97;;;2.80;;
35518;SDS011;21627;48.216;16.482;2023-03-20T14:39:04;3.83;;;2.92;;
35518;SDS011;21627;48.216;16.482;2023-03-20T14:53:10;8.05;;;3.50;;
35518;SDS011;21627;48.216;16.482;2023-03-20T14:56:12;8.45;;;3.20;;
35518;SDS011;21627;48.216;16.482;2023-03-20T15:01:24;6.40;;;3.17;;
35518;SDS011;21627;48.216;16.482;2023-03-20T15:06:54;8.18;;;3.33;;
35518;SDS011;21627;48.216;16.482;2023-03-20T15:09:47;6.15;;;3.25;;
35518;SDS011;21627;48.216;16.482;2023-03-20T15:12:20;10.88;;;3.88;;
35518;SDS011;21627;48.216;16.482;2023-03-20T15:15:01;5.75;;;2.80;;
35518;SDS011;21627;48.216;16.482;2023-03-20T15:17:35;3.42;;;2.70;;
35518;SDS011;21627;48.216;16.482;2023-03-20T15:20:15;8.27;;;2.65;;
35518;SDS011;21627;48.216;16.482;2023-03-20T15:25:27;3.38;;;2.47;;
35518;SDS011;21627;48.216;16.482;2023-03-20T15:28:06;9.85;;;2.88;;
35518;SDS011;21627;48.216;16.482;2023-03-20T15:30:37;4.57;;;2.70;;
35518;SDS011;21627;48.216;16.482;2023-03-20T15:33:09;14.45;;;2.50;;
35518;SDS011;21627;48.216;16.482;2023-03-20T15:35:56;5.13;;;2.38;;
35518;SDS011;21627;48.216;16.482;2023-03-20T15:38:26;4.43;;;2.38;;
35518;SDS011;21627;48.216;16.482;2023-03-20T15:41:02;7.57;;;2.72;;
35518;SDS011;21627;48.216;16.482;2023-03-20T15:43:33;10.35;;;2.78;;
35518;SDS011;21627;48.216;16.482;2023-03-20T15:46:04;3.58;;;2.53;;
35518;SDS011;21627;48.216;16.482;2023-03-20T15:48:47;12.90;;;2.88;;
35518;SDS011;21627;48.216;16.482;2023-03-20T15:51:15;3.17;;;2.10;;
35518;SDS011;21627;48.216;16.482;2023-03-20T15:53:45;3.55;;;2.28;;
35518;SDS011;21627;48.216;16.482;2023-03-20T15:56:14;3.05;;;2.08;;
35518;SDS011;21627;48.216;16.482;2023-03-20T15:58:46;5.38;;;2.15;;
35518;SDS011;21627;48.216;16.482;2023-03-20T16:01:20;4.97;;;2.20;;
35518;SDS011;21627;48.216;16.482;2023-03-20T16:03:51;8.25;;;2.58;;
35518;SDS011;21627;48.216;16.482;2023-03-20T16:06:24;4.95;;;2.42;;
35518;SDS011;21627;48.216;16.482;2023-03-20T16:09:00;6.10;;;2.47;;
35518;SDS011;21627;48.216;16.482;2023-03-20T16:11:36;7.75;;;1.95;;
35518;SDS011;21627;48.216;16.482;2023-03-20T16:14:06;3.42;;;1.92;;
35518;SDS011;21627;48.216;16.482;2023-03-20T16:16:41;2.38;;;1.92;;
35518;SDS011;21627;48.216;16.482;2023-03-20T16:19:12;5.80;;;2.00;;
35518;SDS011;21627;48.216;16.482;2023-03-20T16:21:42;7.50;;;2.30;;
35518;SDS011;21627;48.216;16.482;2023-03-20T16:24:20;5.47;;;2.13;;
35518;SDS011;21627;48.216;16.482;2023-03-20T16:26:55;5.57;;;2.15;;
35518;SDS011;21627;48.216;16.482;2023-03-20T16:29:23;6.13;;;2.60;;
35518;SDS011;21627;48.216;16.482;2023-03-20T16:32:17;6.43;;;2.70;;
35518;SDS011;21627;48.216;16.482;2023-03-20T16:34:47;7.32;;;2.35;;
35518;SDS011;21627;48.216;16.482;2023-03-20T16:37:24;5.28;;;2.55;;
35518;SDS011;21627;48.216;16.482;2023-03-20T16:40:15;5.82;;;2.70;;
35518;SDS011;21627;48.216;16.482;2023-03-20T16:42:43;4.07;;;2.78;;
35518;SDS011;21627;48.216;16.482;2023-03-20T16:47:49;6.68;;;3.08;;
35518;SDS011;21627;48.216;16.482;2023-03-20T16:50:18;6.15;;;2.40;;
35518;SDS011;21627;48.216;16.482;2023-03-20T16:52:50;4.60;;;2.58;;
35518;SDS011;21627;48.216;16.482;2023-03-20T16:55:27;4.93;;;2.60;;
35518;SDS011;21627;48.216;16.482;2023-03-20T16:57:58;5.63;;;2.90;;
35518;SDS011;21627;48.216;16.482;2023-03-20T17:00:40;6.35;;;2.78;;
35518;SDS011;21627;48.216;16.482;2023-03-20T17:08:51;3.72;;;2.67;;
35518;SDS011;21627;48.216;16.482;2023-03-20T17:11:25;5.95;;;3.28;;
35518;SDS011;21627;48.216;16.482;2023-03-20T17:14:01;5.75;;;3.17;;
35518;SDS011;21627;48.216;16.482;2023-03-20T17:16:30;5.22;;;2.70;;
35518;SDS011;21627;48.216;16.482;2023-03-20T17:21:30;7.47;;;3.90;;
35518;SDS011;21627;48.216;16.482;2023-03-20T17:23:57;5.72;;;3.10;;
35518;SDS011;21627;48.216;16.482;2023-03-20T17:26:25;5.63;;;3.40;;
35518;SDS011;21627;48.216;16.482;2023-03-20T17:28:53;8.35;;;3.35;;
35518;SDS011;21627;48.216;16.482;2023-03-20T17:31:22;5.75;;;3.08;;
35518;SDS011;21627;48.216;16.482;2023-03-20T17:33:49;6.43;;;3.33;;
35518;SDS011;21627;48.216;16.482;2023-03-20T17:36:20;4.60;;;3.17;;
35518;SDS011;21627;48.216;16.482;2023-03-20T17:38:55;5.68;;;3.20;;